Buckley Air Force Base
KBKF : now visible

Airfield :











YOU CAN JOIN US ON...

 
LOGIN :

Register | Disclaimer

   EN    FR    IT 

 









Legend :    VFR   Marginal VFR   IFR   Intensive IFR   Very Intensive IFR
Visi :
Ceiling :
>= 8 km
>= 3000ft
5 to 8 km
1000 to 3000 ft
1500m to 5 km
500 to 1000 ft
800 to 1500m
200 to 500 ft
< 800m
< 200 ft
Symbols :   Thunderstorms  Fog  Heavy snow  Heavy precipitations  Wind > 20 kt






- Airport Elevation : 5662 ft


KBKF - Buckley Air Force Base

CURRENT METAR :
  • 030658Z 18008KT 10SM SCT140 SCT220 20/10 A3011 RMK AO2A SLP112 T01990095 403170123

EXPIRED METARs :
  • 030558Z 18009KT 10SM FEW140 SCT220 20/11 A3012 RMK AO2A SLP118 T01960108 10279 20192 58001
  • 030458Z 21008KT 10SM FEW140 SCT220 20/11 A3013 RMK AO2A SLP124 T02030110

TAF TAF KBKF
Valid from the 03 at 01:00 until the 04 at 07:00 UTC


030100Z 0301/0407 12012KT 9999 BKN110 QNH2998INS
BECMG 0405/0406 VRB06KT 9999 FEW075 QNH3002INS TX31/0321Z TN20/0312Z
KZDV FIR / North America



MET'MAP, your aeronautical weather chart ! - Copyright ORBIFLY December 2007 - Disclaimer

ORBIFLY MET'MAP TEAM :

Programming & Development : Alexandra Zaïnal
Original concept : Baudouin d'Aumeries
Technical & hardware support : Manuel Goepfert
Assistance : Marc-Olivier Méhu




SOURCES & CREDITS :

   NOAA       Earth
Advisory